Terminal Aerodrome Forecast
Issued by NWS Boston, MA

Home | Current Version | Previous Version | Text Only | Print | Product List | Glossary On
Versions: 1 2 3 4 5 6 7 8 9 10 11 12 13 14 15 16 17 18 19 20 21 22 23 24 25 26 27 28 29 30 31 32 33 34 35 36 37 38 39 40 41
000
FTUS41 KBOX 281127
TAFBOS
TAF
KBOS 281127Z 2812/2918 VRB03KT P6SM FEW250
     FM281400 18004KT P6SM FEW250
     FM281600 11006KT P6SM SCT050
     FM281800 11011KT P6SM SCT050
     FM282100 18007KT P6SM SCT045
     FM290600 VRB03KT P6SM BKN080
     FM290800 VRB03KT P6SM VCSH OVC070
     FM291200 VRB03KT 5SM -RA BR OVC060=

USA.gov is the U.S. government's official web portal to all federal, state and local government web resources and services.